createdAt,value
2018-03-01T00:02:07.251Z,10.77
2018-03-01T00:04:36.079Z,11.17
2018-03-01T00:07:04.437Z,11.27
2018-03-01T00:09:33.515Z,11.23
2018-03-01T00:12:03.166Z,11.10
2018-03-01T00:14:32.155Z,11.13
2018-03-01T00:17:00.845Z,11.53
2018-03-01T00:25:32.791Z,11.13
2018-03-01T00:28:01.053Z,11.73
2018-03-01T00:30:29.269Z,10.80
2018-03-01T00:32:57.554Z,10.90
2018-03-01T00:38:26.154Z,10.40
2018-03-01T00:40:54.371Z,10.60
2018-03-01T00:43:22.576Z,14.87
2018-03-01T00:45:52.317Z,11.23
2018-03-01T00:48:20.668Z,11.03
2018-03-01T00:50:49.862Z,11.03
2018-03-01T00:53:18.712Z,11.60
2018-03-01T00:55:47.947Z,10.30
2018-03-01T00:58:16.182Z,10.77
2018-03-01T01:00:44.392Z,11.30
2018-03-01T01:03:13.370Z,10.73
2018-03-01T01:05:41.597Z,10.50
2018-03-01T01:08:09.838Z,10.67
2018-03-01T01:10:40.085Z,10.33
2018-03-01T01:13:08.436Z,10.67
2018-03-01T01:15:36.768Z,11.13
2018-03-01T01:18:05.036Z,10.43
2018-03-01T01:20:33.242Z,10.57
2018-03-01T01:23:02.338Z,10.27
2018-03-01T01:25:31.608Z,10.30
2018-03-01T01:28:00.118Z,10.90
2018-03-01T01:30:29.510Z,9.63
2018-03-01T01:32:57.803Z,10.20
2018-03-01T01:35:27.036Z,10.50
2018-03-01T01:37:55.307Z,10.20
2018-03-01T01:40:24.645Z,10.63
2018-03-01T01:42:54.183Z,8.90
2018-03-01T01:45:22.509Z,11.03
2018-03-01T01:47:51.541Z,9.47
2018-03-01T01:50:19.843Z,10.30
2018-03-01T01:52:48.145Z,10.43
2018-03-01T01:55:16.937Z,9.60
2018-03-01T01:57:45.531Z,9.53
2018-03-01T02:00:15.197Z,10.47
2018-03-01T02:02:45.637Z,10.33
2018-03-01T02:05:14.005Z,9.60
2018-03-01T02:07:42.411Z,10.43
2018-03-01T02:10:10.805Z,9.87
2018-03-01T02:12:40.067Z,10.47
2018-03-01T02:15:09.985Z,9.50
2018-03-01T02:17:38.371Z,10.70
2018-03-01T02:20:06.747Z,10.17
2018-03-01T02:22:35.549Z,9.57
2018-03-01T02:25:03.968Z,9.87
2018-03-01T02:27:32.957Z,9.83
2018-03-01T02:30:01.992Z,9.33
2018-03-01T02:32:30.182Z,9.27
2018-03-01T02:34:58.958Z,8.83
2018-03-01T02:37:28.053Z,9.23
2018-03-01T02:39:56.343Z,9.53
2018-03-01T02:42:24.601Z,9.67
2018-03-01T02:44:52.832Z,10.17
2018-03-01T02:47:22.389Z,9.90
2018-03-01T02:49:50.636Z,9.90
2018-03-01T02:52:18.996Z,9.77
2018-03-01T02:54:48.167Z,9.60
2018-03-01T02:57:16.368Z,9.67
2018-03-01T02:59:45.519Z,9.37
2018-03-01T03:02:14.410Z,9.63
2018-03-01T03:04:43.146Z,9.70
2018-03-01T03:07:11.426Z,9.40
2018-03-01T03:09:40.988Z,9.80
2018-03-01T03:12:09.299Z,10.13
2018-03-01T03:14:37.945Z,9.50
2018-03-01T03:17:06.192Z,9.57
2018-03-01T03:19:34.488Z,9.83
2018-03-01T03:22:03.312Z,9.43
2018-03-01T03:24:31.804Z,9.50
2018-03-01T03:27:02.909Z,9.63
2018-03-01T03:29:32.006Z,9.20
2018-03-01T03:32:02.630Z,9.37
2018-03-01T03:34:33.267Z,9.47
2018-03-01T03:37:02.382Z,9.23
2018-03-01T03:39:30.906Z,9.33
2018-03-01T03:42:00.072Z,10.03
2018-03-01T03:44:29.363Z,8.50
2018-03-01T03:46:57.806Z,8.63
2018-03-01T03:49:26.010Z,8.50
2018-03-01T03:51:54.199Z,8.80
2018-03-01T03:54:22.433Z,9.03
2018-03-01T03:56:50.845Z,8.43
2018-03-01T03:59:19.565Z,9.33
2018-03-01T04:01:48.766Z,9.00
2018-03-01T04:04:17.944Z,8.90
2018-03-01T04:06:46.300Z,9.13
2018-03-01T04:09:15.467Z,8.87
2018-03-01T04:11:43.667Z,9.73
2018-03-01T04:14:11.850Z,8.53
2018-03-01T04:16:41.061Z,8.97
2018-03-01T04:19:09.311Z,8.97
2018-03-01T04:21:37.749Z,8.80
2018-03-01T04:24:06.898Z,8.93
2018-03-01T04:26:35.122Z,8.70
2018-03-01T04:29:04.225Z,7.57
2018-03-01T04:31:39.357Z,8.70
2018-03-01T04:34:12.192Z,9.33
2018-03-01T04:36:42.812Z,8.53
2018-03-01T04:39:11.885Z,8.77
2018-03-01T04:41:40.864Z,8.63
2018-03-01T04:44:10.149Z,8.43
2018-03-01T04:46:38.363Z,8.60
2018-03-01T04:51:29.730Z,8.20
2018-03-01T04:53:58.449Z,7.70
2018-03-01T04:56:27.410Z,9.00
2018-03-01T04:58:56.945Z,8.47
2018-03-01T05:01:25.213Z,8.73
2018-03-01T05:03:53.580Z,8.37
2018-03-01T05:06:21.867Z,8.23
2018-03-01T05:08:51.396Z,8.13
2018-03-01T05:11:21.194Z,8.40
2018-03-01T05:13:49.556Z,8.20
2018-03-01T05:16:19.619Z,8.63
2018-03-01T05:18:47.987Z,8.57
2018-03-01T05:21:16.356Z,8.63
2018-03-01T05:23:46.343Z,8.03
2018-03-01T05:26:14.535Z,8.47
2018-03-01T05:28:42.889Z,7.83
2018-03-01T05:31:11.088Z,8.10
2018-03-01T05:33:39.350Z,8.37
2018-03-01T05:36:08.234Z,8.30
2018-03-01T05:38:36.830Z,8.37
2018-03-01T05:41:05.303Z,7.57
2018-03-01T05:43:33.675Z,8.53
2018-03-01T05:46:01.938Z,8.20
2018-03-01T05:48:30.764Z,8.47
2018-03-01T05:50:59.944Z,8.53
2018-03-01T05:53:28.938Z,8.23
2018-03-01T05:55:57.416Z,8.90
2018-03-01T05:58:25.669Z,7.63
2018-03-01T06:00:54.086Z,8.27
2018-03-01T06:03:22.341Z,8.47
2018-03-01T06:05:50.623Z,8.23
2018-03-01T06:08:19.740Z,8.00
2018-03-01T06:10:48.037Z,8.00
2018-03-01T06:13:16.387Z,8.27
2018-03-01T06:15:44.912Z,8.27
2018-03-01T06:18:14.081Z,8.27
2018-03-01T06:20:42.913Z,7.93
2018-03-01T06:23:11.181Z,8.13
2018-03-01T06:25:39.630Z,7.73
2018-03-01T06:28:07.901Z,7.90
2018-03-01T06:30:37.817Z,7.80
2018-03-01T06:33:06.195Z,8.10
2018-03-01T06:35:34.663Z,8.00
2018-03-01T06:38:03.255Z,7.77
2018-03-01T06:40:32.386Z,7.37
2018-03-01T06:43:02.527Z,9.30
2018-03-01T06:45:31.597Z,8.10
2018-03-01T06:48:00.757Z,7.90
2018-03-01T06:50:30.181Z,7.93
2018-03-01T06:53:01.078Z,8.47
2018-03-01T06:55:31.744Z,7.27
2018-03-01T06:58:00.948Z,7.57
2018-03-01T07:00:30.470Z,7.80
2018-03-01T07:02:58.980Z,7.40
2018-03-01T07:05:27.463Z,7.00
2018-03-01T07:07:55.991Z,7.50
2018-03-01T07:10:24.432Z,8.13
2018-03-01T07:12:53.322Z,8.07
2018-03-01T07:15:21.738Z,8.10
2018-03-01T07:17:50.174Z,7.70
2018-03-01T07:20:19.320Z,7.60
2018-03-01T07:22:48.499Z,7.57
2018-03-01T07:25:17.801Z,7.83
2018-03-01T07:27:46.199Z,7.77
2018-03-01T07:30:14.480Z,7.70
2018-03-01T07:32:43.155Z,7.93
2018-03-01T07:35:12.355Z,7.30
2018-03-01T07:37:41.052Z,7.87
2018-03-01T07:40:09.366Z,7.67
2018-03-01T07:42:37.822Z,7.63
2018-03-01T07:45:06.285Z,7.50
2018-03-01T07:47:34.674Z,7.93
2018-03-01T07:50:02.924Z,7.77
2018-03-01T07:52:31.219Z,7.57
2018-03-01T07:54:59.727Z,6.73
2018-03-01T07:57:29.001Z,7.70
2018-03-01T07:59:57.802Z,7.00
2018-03-01T08:02:26.106Z,7.87
2018-03-01T08:04:54.592Z,7.23
2018-03-01T08:07:23.038Z,7.67
2018-03-01T08:09:51.349Z,7.87
2018-03-01T08:12:19.613Z,7.53
2018-03-01T08:14:48.168Z,7.97
2018-03-01T08:17:16.465Z,7.13
2018-03-01T08:19:46.208Z,7.03
2018-03-01T08:22:14.510Z,7.30
2018-03-01T08:24:42.891Z,7.80
2018-03-01T08:27:11.397Z,7.93
2018-03-01T08:29:39.651Z,7.63
2018-03-01T08:32:08.169Z,7.67
2018-03-01T08:34:36.402Z,8.00
2018-03-01T08:37:05.921Z,7.33
2018-03-01T08:39:34.228Z,7.97
2018-03-01T08:42:02.601Z,7.53
2018-03-01T08:44:31.647Z,8.23
2018-03-01T08:47:00.692Z,7.47
2018-03-01T08:49:28.938Z,7.70
2018-03-01T08:51:57.281Z,8.00
2018-03-01T08:54:26.570Z,7.93
2018-03-01T08:56:54.901Z,7.87
2018-03-01T08:59:23.293Z,8.60
2018-03-01T09:01:51.528Z,7.80
2018-03-01T09:04:20.519Z,8.47
2018-03-01T09:06:49.658Z,7.20
2018-03-01T09:09:18.046Z,8.57
2018-03-01T09:11:46.253Z,7.60
2018-03-01T09:14:14.512Z,7.77
2018-03-01T09:16:43.558Z,7.67
2018-03-01T09:19:11.879Z,7.20
2018-03-01T09:21:41.063Z,7.47
2018-03-01T09:24:09.895Z,7.87
2018-03-01T09:26:38.238Z,7.33
2018-03-01T09:29:06.558Z,7.30
2018-03-01T09:31:35.097Z,7.43
2018-03-01T09:34:04.842Z,7.60
2018-03-01T09:36:33.841Z,7.33
2018-03-01T09:39:02.055Z,7.17
2018-03-01T09:41:31.020Z,8.00
2018-03-01T09:44:00.219Z,7.97
2018-03-01T09:46:29.229Z,7.40
2018-03-01T09:48:57.480Z,8.37
2018-03-01T09:51:25.755Z,8.07
2018-03-01T09:53:54.766Z,8.30
2018-03-01T09:56:24.040Z,8.00
2018-03-01T09:58:53.171Z,8.53
2018-03-01T10:01:21.551Z,7.43
2018-03-01T10:03:49.854Z,7.00
2018-03-01T10:06:18.182Z,7.30
2018-03-01T10:08:47.236Z,7.40
2018-03-01T10:11:15.644Z,8.03
2018-03-01T10:13:45.141Z,8.20
2018-03-01T10:16:13.739Z,8.20
2018-03-01T10:18:42.115Z,7.83
2018-03-01T10:21:10.580Z,7.87
2018-03-01T10:23:38.890Z,7.47
2018-03-01T10:26:07.219Z,7.70
2018-03-01T10:28:39.330Z,15.30
2018-03-01T10:31:07.717Z,8.37
2018-03-01T10:33:42.952Z,9.07
2018-03-01T10:36:11.396Z,8.90
2018-03-01T10:38:39.884Z,8.07
2018-03-01T10:41:08.863Z,8.23
2018-03-01T10:43:37.364Z,8.40
2018-03-01T10:46:06.547Z,7.73
2018-03-01T10:48:34.833Z,8.10
2018-03-01T10:51:04.003Z,7.47
2018-03-01T10:53:33.185Z,8.10
2018-03-01T10:56:03.611Z,8.37
2018-03-01T10:58:31.879Z,7.63
2018-03-01T11:01:02.151Z,6.87
2018-03-01T11:03:33.439Z,8.47
2018-03-01T11:06:02.577Z,7.37
2018-03-01T11:08:32.913Z,8.20
2018-03-01T11:11:02.936Z,7.20
2018-03-01T11:13:31.331Z,8.03
2018-03-01T11:15:59.661Z,8.33
2018-03-01T11:18:30.020Z,8.57
2018-03-01T11:20:58.298Z,7.93
2018-03-01T11:23:26.718Z,8.23
2018-03-01T11:25:55.163Z,7.97
2018-03-01T11:28:23.554Z,7.93
2018-03-01T11:30:51.836Z,8.67
2018-03-01T11:33:20.197Z,7.77
2018-03-01T11:35:49.314Z,7.93
2018-03-01T11:38:17.872Z,7.73
2018-03-01T11:40:46.865Z,8.07
2018-03-01T11:43:15.124Z,7.73
2018-03-01T11:45:43.693Z,8.03
2018-03-01T11:48:12.798Z,8.07
2018-03-01T11:50:41.927Z,8.67
2018-03-01T11:53:11.128Z,7.50
2018-03-01T11:55:39.443Z,7.90
2018-03-01T11:58:07.712Z,8.20
2018-03-01T12:00:36.193Z,7.70
2018-03-01T12:03:07.941Z,8.10
2018-03-01T12:05:37.321Z,7.90
2018-03-01T12:08:05.726Z,8.07
2018-03-01T12:10:33.969Z,7.70
2018-03-01T12:13:02.293Z,7.90
2018-03-01T12:15:31.174Z,7.90
2018-03-01T12:17:59.439Z,8.20
2018-03-01T12:20:28.767Z,8.30
2018-03-01T12:22:58.240Z,8.10
2018-03-01T12:25:26.750Z,8.30
2018-03-01T12:27:54.987Z,8.73
2018-03-01T12:30:25.035Z,7.97
2018-03-01T12:32:53.387Z,8.37
2018-03-01T12:35:22.547Z,8.93
2018-03-01T12:37:51.578Z,7.83
2018-03-01T12:40:19.851Z,8.40
2018-03-01T12:42:48.108Z,8.27
2018-03-01T12:45:16.361Z,7.60
2018-03-01T12:47:45.937Z,7.80
2018-03-01T12:50:15.095Z,7.60
2018-03-01T12:52:43.673Z,7.17
2018-03-01T12:55:11.972Z,7.20
2018-03-01T12:57:40.371Z,7.77
2018-03-01T13:00:08.738Z,8.17
2018-03-01T13:02:37.050Z,7.97
2018-03-01T13:05:15.294Z,8.30
2018-03-01T13:07:44.842Z,8.30
2018-03-01T13:10:13.096Z,7.43
2018-03-01T13:12:41.597Z,8.40
2018-03-01T13:15:09.890Z,7.10
2018-03-01T13:17:38.322Z,7.20
2018-03-01T13:20:06.715Z,7.77
2018-03-01T13:22:35.102Z,7.77
2018-03-01T13:25:04.955Z,8.47
2018-03-01T13:27:33.398Z,7.43
2018-03-01T13:30:03.090Z,8.07
2018-03-01T13:32:34.044Z,7.03
2018-03-01T13:35:03.876Z,7.50
2018-03-01T13:37:32.278Z,8.10
2018-03-01T13:40:01.584Z,8.07
2018-03-01T13:45:32.139Z,7.33
2018-03-01T13:48:01.599Z,7.13
2018-03-01T13:50:29.954Z,7.37
2018-03-01T13:52:58.270Z,9.43
2018-03-01T13:55:26.586Z,8.07
2018-03-01T13:57:56.789Z,7.47
2018-03-01T14:00:25.094Z,7.10
2018-03-01T14:02:53.423Z,7.37
2018-03-01T14:05:22.324Z,7.07
2018-03-01T14:07:51.607Z,7.80
2018-03-01T14:10:21.150Z,7.03
2018-03-01T14:12:55.033Z,8.03
2018-03-01T14:15:23.552Z,7.20
2018-03-01T14:18:05.613Z,7.23
2018-03-01T14:20:51.231Z,7.20
2018-03-01T14:23:21.777Z,7.20
2018-03-01T14:25:53.361Z,7.10
2018-03-01T14:28:27.483Z,7.53
2018-03-01T14:30:56.070Z,8.23
2018-03-01T14:33:25.179Z,6.90
2018-03-01T14:35:53.775Z,7.63
2018-03-01T14:38:22.334Z,6.90
2018-03-01T14:40:50.713Z,7.30
2018-03-01T14:43:18.989Z,7.60
2018-03-01T14:45:48.329Z,7.30
2018-03-01T14:48:16.633Z,8.20
2018-03-01T14:50:44.947Z,7.40
2018-03-01T14:53:13.325Z,6.83
2018-03-01T14:55:41.598Z,7.60
2018-03-01T14:58:10.629Z,7.27
2018-03-01T15:00:39.190Z,7.43
2018-03-01T15:03:07.486Z,7.30
2018-03-01T15:05:36.043Z,7.47
2018-03-01T15:08:04.425Z,7.57
2018-03-01T15:10:33.480Z,6.93
2018-03-01T15:13:02.798Z,7.27
2018-03-01T15:15:31.187Z,7.50
2018-03-01T15:18:01.598Z,7.67
2018-03-01T15:20:30.828Z,7.40
2018-03-01T15:22:59.214Z,7.87
2018-03-01T15:25:29.604Z,6.83
2018-03-01T15:28:02.853Z,7.63
2018-03-01T15:30:31.214Z,7.83
2018-03-01T15:32:59.486Z,7.97
2018-03-01T15:35:28.680Z,7.87
2018-03-01T15:37:57.080Z,7.40
2018-03-01T15:40:25.546Z,7.17
2018-03-01T15:42:55.325Z,7.43
2018-03-01T15:45:23.837Z,7.00
2018-03-01T15:47:52.082Z,7.40
2018-03-01T15:50:22.195Z,6.93
2018-03-01T15:52:50.923Z,7.70
2018-03-01T15:55:19.342Z,6.80
2018-03-01T15:57:47.706Z,11.30
2018-03-01T16:00:17.063Z,9.87
2018-03-01T16:02:45.395Z,10.07
2018-03-01T16:05:15.738Z,7.43
2018-03-01T16:07:44.067Z,7.40
2018-03-01T16:10:12.456Z,8.27
2018-03-01T16:12:40.768Z,7.23
2018-03-01T16:15:09.249Z,8.03
2018-03-01T16:17:37.547Z,7.73
2018-03-01T16:20:06.989Z,7.50
2018-03-01T16:22:35.411Z,7.57
2018-03-01T16:25:04.451Z,8.30
2018-03-01T16:27:32.837Z,8.07
2018-03-01T16:30:01.276Z,10.87
2018-03-01T16:32:33.575Z,7.87
2018-03-01T16:35:01.873Z,8.03
2018-03-01T16:37:30.180Z,9.27
2018-03-01T16:39:59.356Z,6.77
2018-03-01T16:42:30.557Z,7.20
2018-03-01T16:44:59.637Z,6.90
2018-03-01T16:47:28.628Z,7.40
2018-03-01T16:49:57.777Z,7.20
2018-03-01T16:52:26.222Z,6.70
2018-03-01T16:54:54.811Z,7.17
2018-03-01T16:57:23.198Z,6.83
2018-03-01T16:59:51.634Z,6.97
2018-03-01T17:02:19.913Z,7.50
2018-03-01T17:04:48.330Z,6.80
2018-03-01T17:07:17.323Z,7.57
2018-03-01T17:09:45.862Z,7.33
2018-03-01T17:12:14.154Z,7.60
2018-03-01T17:14:42.417Z,6.70
2018-03-01T17:17:10.787Z,6.70
2018-03-01T17:19:40.090Z,7.00
2018-03-01T17:22:08.454Z,7.20
2018-03-01T17:24:36.826Z,7.37
2018-03-01T17:27:05.320Z,6.90
2018-03-01T17:29:33.654Z,6.93
2018-03-01T17:32:02.886Z,6.77
2018-03-01T17:34:31.104Z,8.27
2018-03-01T17:36:59.391Z,7.47
2018-03-01T17:39:28.493Z,7.43
2018-03-01T17:41:56.715Z,6.83
2018-03-01T17:44:24.949Z,7.97
2018-03-01T17:46:53.960Z,7.13
2018-03-01T17:49:23.171Z,6.87
2018-03-01T17:51:51.414Z,6.87
2018-03-01T17:54:22.289Z,10.17
2018-03-01T17:56:51.293Z,6.50
2018-03-01T17:59:19.578Z,7.87
2018-03-01T18:01:47.952Z,8.67
2018-03-01T18:04:16.196Z,6.70
2018-03-01T18:06:45.179Z,7.03
2018-03-01T18:09:14.158Z,7.70
2018-03-01T18:11:43.170Z,7.73
2018-03-01T18:14:12.158Z,8.17
2018-03-01T18:16:41.203Z,7.23
2018-03-01T18:19:09.433Z,7.23
2018-03-01T18:21:37.800Z,6.70
2018-03-01T18:24:07.769Z,7.07
2018-03-01T18:26:36.349Z,5.90
2018-03-01T18:29:04.569Z,7.30
2018-03-01T18:31:32.820Z,6.43
2018-03-01T18:34:01.053Z,6.60
2018-03-01T18:36:30.254Z,7.30
2018-03-01T18:38:59.385Z,7.20
2018-03-01T18:41:27.626Z,6.33
2018-03-01T18:43:55.866Z,6.20
2018-03-01T18:46:25.832Z,6.23
2018-03-01T18:48:54.024Z,6.90
2018-03-01T18:51:22.420Z,6.70
2018-03-01T18:53:50.655Z,6.90
2018-03-01T18:56:18.968Z,6.60
2018-03-01T18:58:47.276Z,6.67
2018-03-01T19:01:16.265Z,6.57
2018-03-01T19:03:44.508Z,7.03
2018-03-01T19:06:12.789Z,6.67
2018-03-01T19:08:41.116Z,7.17
2018-03-01T19:11:10.116Z,6.60
2018-03-01T19:13:38.460Z,7.90
2018-03-01T19:16:08.043Z,6.63
2018-03-01T19:18:36.329Z,6.33
2018-03-01T19:21:04.545Z,6.33
2018-03-01T19:23:32.839Z,6.43
2018-03-01T19:26:01.846Z,6.40
2018-03-01T19:28:30.401Z,6.80
2018-03-01T19:30:58.743Z,6.73
2018-03-01T19:33:26.986Z,6.50
2018-03-01T19:35:56.845Z,7.37
2018-03-01T19:38:25.888Z,7.20
2018-03-01T19:40:54.104Z,6.50
2018-03-01T19:43:23.183Z,6.53
2018-03-01T19:45:51.447Z,7.00
2018-03-01T19:48:19.668Z,7.60
2018-03-01T19:50:48.025Z,7.03
2018-03-01T19:53:17.138Z,7.03
2018-03-01T19:55:45.690Z,6.60
2018-03-01T19:58:14.000Z,6.60
2018-03-01T20:00:42.340Z,6.83
2018-03-01T20:03:10.565Z,6.23
2018-03-01T20:05:38.814Z,6.50
2018-03-01T20:08:07.023Z,6.63
2018-03-01T20:10:36.956Z,7.43
2018-03-01T20:13:05.949Z,6.30
2018-03-01T20:15:34.937Z,6.73
2018-03-01T20:18:03.991Z,6.97
2018-03-01T20:20:32.336Z,6.40
2018-03-01T20:23:00.633Z,6.43
2018-03-01T20:25:28.894Z,6.97
2018-03-01T20:27:57.133Z,6.73
2018-03-01T20:30:26.137Z,7.03
2018-03-01T20:32:54.632Z,6.63
2018-03-01T20:35:22.872Z,7.10
2018-03-01T20:37:51.110Z,6.83
2018-03-01T20:40:19.337Z,6.80
2018-03-01T20:42:48.490Z,7.27
2018-03-01T20:45:16.986Z,7.03
2018-03-01T20:47:46.273Z,6.80
2018-03-01T20:50:14.711Z,6.90
2018-03-01T20:52:43.735Z,6.70
2018-03-01T20:55:11.969Z,6.63
2018-03-01T20:57:40.988Z,6.60
2018-03-01T21:00:09.282Z,7.63
2018-03-01T21:02:38.358Z,7.67
2018-03-01T21:05:06.765Z,7.03
2018-03-01T21:07:34.988Z,7.70
2018-03-01T21:10:03.265Z,7.30
2018-03-01T21:12:32.247Z,7.10
2018-03-01T21:15:00.590Z,7.10
2018-03-01T21:17:28.920Z,7.33
2018-03-01T21:19:57.262Z,7.07
2018-03-01T21:22:27.582Z,7.20
2018-03-01T21:24:55.886Z,6.87
2018-03-01T21:27:24.177Z,7.60
2018-03-01T21:29:53.225Z,7.23
2018-03-01T21:32:21.455Z,7.23
2018-03-01T21:34:49.702Z,7.27
2018-03-01T21:37:18.464Z,7.77
2018-03-01T21:39:46.851Z,7.37
2018-03-01T21:42:15.696Z,6.93
2018-03-01T21:44:44.705Z,7.07
2018-03-01T21:47:12.943Z,7.70
2018-03-01T21:49:41.975Z,6.87
2018-03-01T21:52:10.222Z,7.13
2018-03-01T21:54:38.599Z,7.53
2018-03-01T21:57:07.651Z,6.83
2018-03-01T21:59:37.438Z,7.77
2018-03-01T22:02:05.781Z,7.10
2018-03-01T22:04:34.223Z,7.30
2018-03-01T22:07:02.545Z,7.37
2018-03-01T22:09:30.893Z,6.87
2018-03-01T22:11:59.154Z,8.07
2018-03-01T22:14:27.428Z,7.80
2018-03-01T22:16:55.810Z,7.07
2018-03-01T22:19:24.220Z,8.33
2018-03-01T22:21:53.255Z,7.50
2018-03-01T22:24:22.223Z,7.80
2018-03-01T22:26:50.547Z,7.93
2018-03-01T22:29:22.011Z,7.30
2018-03-01T22:31:50.328Z,8.27
2018-03-01T22:34:19.393Z,7.87
2018-03-01T22:36:47.597Z,7.40
2018-03-01T22:39:15.871Z,8.03
2018-03-01T22:41:45.043Z,8.40
2018-03-01T22:44:13.451Z,8.23
2018-03-01T22:46:42.300Z,8.27
2018-03-01T22:49:11.664Z,8.03
2018-03-01T22:51:41.552Z,8.23
2018-03-01T22:54:09.822Z,8.20
2018-03-01T22:56:38.165Z,7.67
2018-03-01T22:59:06.430Z,7.40
2018-03-01T23:01:35.041Z,7.63
2018-03-01T23:04:03.339Z,7.53
2018-03-01T23:06:32.250Z,8.30
2018-03-01T23:09:02.019Z,7.50
2018-03-01T23:11:30.301Z,6.97
2018-03-01T23:13:58.648Z,7.90
2018-03-01T23:16:26.962Z,7.73
2018-03-01T23:18:56.029Z,7.70
2018-03-01T23:21:24.461Z,8.23
2018-03-01T23:23:52.733Z,7.80
2018-03-01T23:26:21.451Z,7.87
2018-03-01T23:28:50.584Z,7.40
2018-03-01T23:31:18.890Z,8.20
2018-03-01T23:33:47.351Z,7.73
2018-03-01T23:36:16.365Z,7.67
2018-03-01T23:38:45.258Z,7.63
2018-03-01T23:41:13.502Z,7.43
2018-03-01T23:43:41.907Z,8.10
2018-03-01T23:46:11.184Z,8.13
2018-03-01T23:48:40.208Z,7.13
2018-03-01T23:51:09.615Z,7.50
2018-03-01T23:53:37.879Z,8.17
2018-03-01T23:56:07.657Z,8.57
2018-03-01T23:58:36.171Z,8.73
